Kezdőlap
METAR-TAF:

METAR-TAF

Repülőterek :

Clinton Municipal Airport

Clinton, Iowa, Amerikai Egyesült Államok

földrajzi szélesség: 41-50N, földrajzi hosszúság: 090-20W, magasság: 216 m

Jelenlegi meteorológiai megfigyelések

A jelentés 57 perccel ezelõtt készült, 11:56 UTC
Északi szél 8 kt
Hőmérséklet -3°C
Páratartalom 100%
Légköri nyomás 1025 hPa
Látótávolság: 9.7 km
Derült ég
Párásság

METAR: KCWI 041156Z AUTO 36008KT 6SM BR CLR M03/M03 A3028 RMK AO2 SLP268 6//// 7//// T10331033 11011 21044 53017 FZRANO PNO $

Idő: 06:53 (12:53 UTC)


TAF: hiányzik

Meteorológiai megfigyelések és előrejelzések több, mint 4000 repülőtéren (METAR és TAF jelentéseket).

A térképen piros és sárga pontok jelzik az elérhető meteorológiai állomásokat.

Mozgassa az egeret a pont fölött, hogy megjelenjen az állomás neve.

Azután kattintson az időjárási megfigyelések és előrejelzések megtekintéséhez.

A térkép megváltoztatása: kattintson a fekete keresztel jelölt zöld gombra ráközelítéshez, a vonallal jelölt zöld gombra távolításhoz, vagy a zöld nyilakra a szomszédos térképek eléréséhez.


METAR-TAF: